createdAt,value
2018-09-12T00:02:21.701Z,3.00
2018-09-12T00:04:58.917Z,2.70
2018-09-12T00:07:36.203Z,2.53
2018-09-12T00:10:13.898Z,3.17
2018-09-12T00:12:49.957Z,2.60
2018-09-12T00:15:26.835Z,2.60
2018-09-12T00:18:04.110Z,3.00
2018-09-12T00:20:40.661Z,3.23
2018-09-12T00:23:16.964Z,3.33
2018-09-12T00:25:54.458Z,3.00
2018-09-12T00:28:31.454Z,2.93
2018-09-12T00:31:08.548Z,3.50
2018-09-12T00:33:46.027Z,3.60
2018-09-12T00:36:22.702Z,3.73
2018-09-12T00:39:00.158Z,4.50
2018-09-12T00:41:37.611Z,4.00
2018-09-12T00:44:14.937Z,3.60
2018-09-12T00:46:52.981Z,3.80
2018-09-12T00:49:31.624Z,3.50
2018-09-12T00:52:07.946Z,4.33
2018-09-12T00:54:45.357Z,3.77
2018-09-12T00:57:23.252Z,4.30
2018-09-12T01:00:01.445Z,4.33
2018-09-12T01:02:39.165Z,4.00
2018-09-12T01:05:15.632Z,3.67
2018-09-12T01:07:51.991Z,4.67
2018-09-12T01:10:29.485Z,4.27
2018-09-12T01:13:06.208Z,4.40
2018-09-12T01:15:43.867Z,3.80
2018-09-12T01:18:21.201Z,4.17
2018-09-12T01:20:57.628Z,3.77
2018-09-12T01:23:34.784Z,4.00
2018-09-12T01:26:11.586Z,4.30
2018-09-12T01:28:48.992Z,3.93
2018-09-12T01:31:26.061Z,4.33
2018-09-12T01:34:02.885Z,4.10
2018-09-12T01:36:39.897Z,4.07
2018-09-12T01:39:17.585Z,4.20
2018-09-12T01:41:54.497Z,3.47
2018-09-12T01:44:30.589Z,4.97
2018-09-12T01:47:07.849Z,4.57
2018-09-12T01:49:45.033Z,3.97
2018-09-12T01:52:21.093Z,4.13
2018-09-12T01:54:58.605Z,4.13
2018-09-12T01:57:36.057Z,4.00
2018-09-12T02:00:16.825Z,3.73
2018-09-12T02:02:54.052Z,3.90
2018-09-12T02:05:30.471Z,4.20
2018-09-12T02:08:07.274Z,4.00
2018-09-12T02:10:43.624Z,3.87
2018-09-12T02:13:20.141Z,4.40
2018-09-12T02:15:56.526Z,4.00
2018-09-12T02:18:32.808Z,4.20
2018-09-12T02:21:09.541Z,4.40
2018-09-12T02:23:46.829Z,4.00
2018-09-12T02:26:25.285Z,4.43
2018-09-12T02:29:03.656Z,4.13
2018-09-12T02:31:40.822Z,3.90
2018-09-12T02:34:17.442Z,3.83
2018-09-12T02:36:54.926Z,4.20
2018-09-12T02:39:32.136Z,4.07
2018-09-12T02:42:09.496Z,4.10
2018-09-12T02:44:46.808Z,4.00
2018-09-12T02:47:29.522Z,4.17
2018-09-12T02:50:12.072Z,4.37
2018-09-12T02:52:49.317Z,4.57
2018-09-12T02:55:26.197Z,3.93
2018-09-12T02:58:02.116Z,4.43
2018-09-12T03:00:40.112Z,4.23
2018-09-12T03:03:16.411Z,4.00
2018-09-12T03:05:53.569Z,4.27
2018-09-12T03:08:30.388Z,4.53
2018-09-12T03:11:07.413Z,4.30
2018-09-12T03:13:43.953Z,4.63
2018-09-12T03:16:22.255Z,4.53
2018-09-12T03:19:00.007Z,4.00
2018-09-12T03:21:36.190Z,4.90
2018-09-12T03:24:13.745Z,4.53
2018-09-12T03:26:51.376Z,4.90
2018-09-12T03:29:27.439Z,4.13
2018-09-12T03:32:03.709Z,4.57
2018-09-12T03:34:41.095Z,4.53
2018-09-12T03:37:17.380Z,4.97
2018-09-12T03:39:55.811Z,4.13
2018-09-12T03:42:33.256Z,4.60
2018-09-12T03:45:11.371Z,4.40
2018-09-12T03:47:47.321Z,4.33
2018-09-12T03:50:24.218Z,4.67
2018-09-12T03:53:01.321Z,4.50
2018-09-12T03:55:38.051Z,4.57
2018-09-12T03:58:14.997Z,4.83
2018-09-12T04:00:51.071Z,4.43
2018-09-12T04:03:27.995Z,5.13
2018-09-12T04:06:04.853Z,5.10
2018-09-12T04:08:43.137Z,4.20
2018-09-12T04:11:19.834Z,4.70
2018-09-12T04:13:56.608Z,4.80
2018-09-12T04:16:32.975Z,5.07
2018-09-12T04:19:09.132Z,4.60
2018-09-12T04:21:45.057Z,4.73
2018-09-12T04:24:21.148Z,5.50
2018-09-12T04:26:57.286Z,4.80
2018-09-12T04:29:33.261Z,5.40
2018-09-12T04:32:10.650Z,5.40
2018-09-12T04:34:47.189Z,5.37
2018-09-12T04:37:23.975Z,5.77
2018-09-12T04:40:00.565Z,5.57
2018-09-12T04:42:38.250Z,5.83
2018-09-12T04:45:16.164Z,6.37
2018-09-12T04:47:52.121Z,6.10
2018-09-12T04:50:27.986Z,5.67
2018-09-12T04:53:04.616Z,6.40
2018-09-12T04:55:40.976Z,5.67
2018-09-12T04:58:16.767Z,6.00
2018-09-12T05:00:53.032Z,5.60
2018-09-12T05:03:29.201Z,5.40
2018-09-12T05:06:05.457Z,5.47
2018-09-12T05:08:41.514Z,5.70
2018-09-12T05:11:18.513Z,5.63
2018-09-12T05:13:54.867Z,5.57
2018-09-12T05:16:30.964Z,5.63
2018-09-12T05:19:06.773Z,6.13
2018-09-12T05:21:43.999Z,5.70
2018-09-12T05:24:24.111Z,5.60
2018-09-12T05:27:01.243Z,6.80
2018-09-12T05:29:37.298Z,5.30
2018-09-12T05:32:13.865Z,5.83
2018-09-12T05:34:50.681Z,5.63
2018-09-12T05:37:27.863Z,5.43
2018-09-12T05:40:05.380Z,5.17
2018-09-12T05:42:43.224Z,5.30
2018-09-12T05:45:19.341Z,5.53
2018-09-12T05:47:56.033Z,4.57
2018-09-12T05:50:33.213Z,5.57
2018-09-12T05:53:10.297Z,5.40
2018-09-12T05:55:47.034Z,5.57
2018-09-12T05:58:23.315Z,5.20
2018-09-12T06:01:01.960Z,5.00
2018-09-12T06:03:39.078Z,5.37
2018-09-12T06:06:15.341Z,5.33
2018-09-12T06:08:52.065Z,5.77
2018-09-12T06:11:28.091Z,5.10
2018-09-12T06:14:04.359Z,5.13
2018-09-12T06:16:42.433Z,5.37
2018-09-12T06:19:19.574Z,5.53
2018-09-12T06:21:57.238Z,5.53
2018-09-12T06:24:33.095Z,4.90
2018-09-12T06:27:09.663Z,5.57
2018-09-12T06:29:46.025Z,4.87
2018-09-12T06:32:23.332Z,5.10
2018-09-12T06:34:59.990Z,5.47
2018-09-12T06:37:36.113Z,5.00
2018-09-12T06:40:13.776Z,5.27
2018-09-12T06:42:51.309Z,5.87
2018-09-12T06:45:29.741Z,5.77
2018-09-12T06:48:07.725Z,5.60
2018-09-12T06:50:49.128Z,5.43
2018-09-12T06:53:26.949Z,5.27
2018-09-12T06:56:05.322Z,5.17
2018-09-12T06:58:43.089Z,5.27
2018-09-12T07:01:20.168Z,5.00
2018-09-12T07:03:58.049Z,5.07
2018-09-12T07:06:34.640Z,5.17
2018-09-12T07:09:11.597Z,4.53
2018-09-12T07:11:48.440Z,4.50
2018-09-12T07:14:25.114Z,4.10
2018-09-12T07:17:08.474Z,4.47
2018-09-12T07:19:45.373Z,4.57
2018-09-12T07:22:22.662Z,4.80
2018-09-12T07:25:00.206Z,4.83
2018-09-12T07:27:37.423Z,4.60
2018-09-12T07:30:14.741Z,4.80
2018-09-12T07:32:52.288Z,4.37
2018-09-12T07:35:30.284Z,4.77
2018-09-12T07:38:06.231Z,4.37
2018-09-12T07:40:43.407Z,4.23
2018-09-12T07:43:20.981Z,4.10
2018-09-12T07:46:00.350Z,4.70
2018-09-12T07:48:38.432Z,4.30
2018-09-12T07:51:15.892Z,4.00
2018-09-12T07:53:54.618Z,4.30
2018-09-12T07:56:32.265Z,4.40
2018-09-12T07:59:10.237Z,3.60
2018-09-12T08:01:47.094Z,3.93
2018-09-12T08:04:25.074Z,3.87
2018-09-12T08:07:04.050Z,3.27
2018-09-12T08:09:41.881Z,3.10
2018-09-12T08:12:20.610Z,2.90
2018-09-12T08:14:58.326Z,2.87
2018-09-12T08:17:35.806Z,3.13
2018-09-12T08:20:13.630Z,3.20
2018-09-12T08:22:51.109Z,2.70
2018-09-12T08:25:28.707Z,2.50
2018-09-12T08:28:05.732Z,2.80
2018-09-12T08:30:42.984Z,2.53
2018-09-12T08:33:21.004Z,2.60
2018-09-12T08:35:59.082Z,3.10
2018-09-12T08:38:36.289Z,2.70
2018-09-12T08:41:13.777Z,2.80
2018-09-12T08:43:51.461Z,2.83
2018-09-12T08:46:27.841Z,2.80
2018-09-12T08:49:05.406Z,3.00
2018-09-12T08:51:43.567Z,2.47
2018-09-12T08:54:22.017Z,2.43
2018-09-12T08:56:59.345Z,3.27
2018-09-12T08:59:36.778Z,2.90
2018-09-12T09:02:13.342Z,3.00
2018-09-12T09:04:51.588Z,2.80
2018-09-12T09:07:28.290Z,2.80
2018-09-12T09:10:05.324Z,2.80
2018-09-12T09:12:43.053Z,2.70
2018-09-12T09:15:20.853Z,2.23
2018-09-12T09:17:58.605Z,2.93
2018-09-12T09:20:35.918Z,3.07
2018-09-12T09:23:12.709Z,2.73
2018-09-12T09:25:50.515Z,2.70
2018-09-12T09:28:29.769Z,2.50
2018-09-12T09:31:07.404Z,2.40
2018-09-12T09:33:44.969Z,2.70
2018-09-12T09:36:21.273Z,3.13
2018-09-12T09:39:00.361Z,2.90
2018-09-12T09:41:36.872Z,2.57
2018-09-12T09:44:15.004Z,3.00
2018-09-12T09:46:52.523Z,2.70
2018-09-12T09:49:29.986Z,2.67
2018-09-12T09:52:08.530Z,2.83
2018-09-12T09:54:46.355Z,2.60
2018-09-12T09:57:24.403Z,2.73
2018-09-12T10:00:03.237Z,2.97
2018-09-12T10:02:42.049Z,2.63
2018-09-12T10:05:23.858Z,2.90
2018-09-12T10:08:06.041Z,2.60
2018-09-12T10:10:44.673Z,2.60
2018-09-12T10:13:22.677Z,2.30
2018-09-12T10:16:00.019Z,2.60
2018-09-12T10:18:37.215Z,2.70
2018-09-12T10:21:15.735Z,2.83
2018-09-12T10:23:52.241Z,2.63
2018-09-12T10:26:32.131Z,2.63
2018-09-12T10:29:09.522Z,2.77
2018-09-12T10:31:47.237Z,2.50
2018-09-12T10:34:26.395Z,2.70
2018-09-12T10:37:04.774Z,2.77
2018-09-12T10:39:42.152Z,2.47
2018-09-12T10:42:21.638Z,2.97
2018-09-12T10:44:58.985Z,2.50
2018-09-12T10:47:36.319Z,2.67
2018-09-12T10:50:13.399Z,2.70
2018-09-12T10:52:57.840Z,2.53
2018-09-12T10:55:35.965Z,2.70
2018-09-12T10:58:13.749Z,2.87
2018-09-12T11:00:52.649Z,2.17
2018-09-12T11:03:29.289Z,2.83
2018-09-12T11:06:06.463Z,2.43
2018-09-12T11:08:43.851Z,2.40
2018-09-12T11:11:21.874Z,2.50
2018-09-12T11:13:59.928Z,2.40
2018-09-12T11:16:36.871Z,2.33
2018-09-12T11:19:15.151Z,2.77
2018-09-12T11:21:52.381Z,2.90
2018-09-12T11:24:30.000Z,2.93
2018-09-12T11:27:09.394Z,2.53
2018-09-12T11:29:47.497Z,2.70
2018-09-12T11:32:24.660Z,2.30
2018-09-12T11:35:03.551Z,2.23
2018-09-12T11:37:40.737Z,2.40
2018-09-12T11:40:17.820Z,2.73
2018-09-12T11:42:55.354Z,2.43
2018-09-12T11:45:32.538Z,2.60
2018-09-12T11:48:10.300Z,2.43
2018-09-12T11:50:47.599Z,2.50
2018-09-12T11:53:24.304Z,2.40
2018-09-12T11:56:03.733Z,2.60
2018-09-12T11:58:40.462Z,2.50
2018-09-12T12:01:18.037Z,2.60
2018-09-12T12:03:57.281Z,2.57
2018-09-12T12:06:35.011Z,2.50
2018-09-12T12:09:13.252Z,2.60
2018-09-12T12:11:51.731Z,2.33
2018-09-12T12:14:28.511Z,2.70
2018-09-12T12:17:12.390Z,2.93
2018-09-12T12:19:50.970Z,2.33
2018-09-12T12:22:27.986Z,2.47
2018-09-12T12:25:06.053Z,2.87
2018-09-12T12:27:42.842Z,2.80
2018-09-12T12:30:22.259Z,2.70
2018-09-12T12:33:01.608Z,2.47
2018-09-12T12:35:39.294Z,2.83
2018-09-12T12:38:17.789Z,2.87
2018-09-12T12:40:57.188Z,2.90
2018-09-12T12:43:35.143Z,2.57
2018-09-12T12:46:13.008Z,3.00
2018-09-12T12:48:50.934Z,2.90
2018-09-12T12:51:27.581Z,2.83
2018-09-12T12:54:05.828Z,2.77
2018-09-12T12:56:42.791Z,3.00
2018-09-12T12:59:21.158Z,3.63
2018-09-12T13:01:57.656Z,2.90
2018-09-12T13:04:35.566Z,3.10
2018-09-12T13:07:13.877Z,2.63
2018-09-12T13:09:53.949Z,2.97
2018-09-12T13:12:31.479Z,2.90
2018-09-12T13:15:09.023Z,3.13
2018-09-12T13:17:45.919Z,2.60
2018-09-12T13:20:22.993Z,3.07
2018-09-12T13:23:01.328Z,2.80
2018-09-12T13:25:39.227Z,2.70
2018-09-12T13:28:15.913Z,2.70
2018-09-12T13:30:53.286Z,2.73
2018-09-12T13:33:31.043Z,2.77
2018-09-12T13:36:11.900Z,2.77
2018-09-12T13:38:50.113Z,2.80
2018-09-12T13:41:27.556Z,3.17
2018-09-12T13:44:04.279Z,2.57
2018-09-12T13:46:41.657Z,3.10
2018-09-12T13:49:20.062Z,3.10
2018-09-12T13:51:57.714Z,2.30
2018-09-12T13:54:37.052Z,2.70
2018-09-12T13:57:15.303Z,2.50
2018-09-12T13:59:52.139Z,3.40
2018-09-12T14:02:30.516Z,3.00
2018-09-12T14:05:07.215Z,2.90
2018-09-12T14:07:45.121Z,2.97
2018-09-12T14:10:21.857Z,3.03
2018-09-12T14:13:00.835Z,2.70
2018-09-12T14:15:37.317Z,3.17
2018-09-12T14:18:15.041Z,2.87
2018-09-12T14:20:52.290Z,2.80
2018-09-12T14:23:28.520Z,2.83
2018-09-12T14:26:06.922Z,2.57
2018-09-12T14:28:44.265Z,2.50
2018-09-12T14:31:23.053Z,3.10
2018-09-12T14:34:01.962Z,2.97
2018-09-12T14:36:39.474Z,2.87
2018-09-12T14:39:16.052Z,2.67
2018-09-12T14:41:54.632Z,2.30
2018-09-12T14:44:32.436Z,3.17
2018-09-12T14:47:11.673Z,2.50
2018-09-12T14:49:49.285Z,2.40
2018-09-12T14:52:26.488Z,2.70
2018-09-12T14:55:04.237Z,3.03
2018-09-12T14:57:42.432Z,2.50
2018-09-12T15:00:26.555Z,2.60
2018-09-12T15:03:05.521Z,2.60
2018-09-12T15:05:43.478Z,2.60
2018-09-12T15:08:20.091Z,2.77
2018-09-12T15:10:59.042Z,2.37
2018-09-12T15:13:35.953Z,2.70
2018-09-12T15:16:14.005Z,2.83
2018-09-12T15:18:50.504Z,2.80
2018-09-12T15:21:27.249Z,2.60
2018-09-12T15:24:08.105Z,2.70
2018-09-12T15:26:45.921Z,2.77
2018-09-12T15:29:22.545Z,3.07
2018-09-12T15:31:58.712Z,2.40
2018-09-12T15:34:36.517Z,2.83
2018-09-12T15:37:14.372Z,2.53
2018-09-12T15:39:51.844Z,2.70
2018-09-12T15:42:30.154Z,3.30
2018-09-12T15:45:05.922Z,3.00
2018-09-12T15:47:44.801Z,3.60
2018-09-12T15:50:23.699Z,3.23
2018-09-12T15:53:01.017Z,2.83
2018-09-12T15:55:38.825Z,3.47
2018-09-12T15:58:16.812Z,3.20
2018-09-12T16:00:55.788Z,3.53
2018-09-12T16:03:32.759Z,3.20
2018-09-12T16:06:09.931Z,2.50
2018-09-12T16:08:46.800Z,2.70
2018-09-12T16:11:25.669Z,2.80
2018-09-12T16:14:04.066Z,2.80
2018-09-12T16:16:40.488Z,3.27
2018-09-12T16:19:17.269Z,3.03
2018-09-12T16:21:53.876Z,4.10
2018-09-12T16:24:32.765Z,3.30
2018-09-12T16:27:09.994Z,3.10
2018-09-12T16:29:48.880Z,3.23
2018-09-12T16:32:26.950Z,3.20
2018-09-12T16:35:04.584Z,3.70
2018-09-12T16:37:42.468Z,4.37
2018-09-12T16:40:21.036Z,4.33
2018-09-12T16:42:59.195Z,4.67
2018-09-12T16:45:36.400Z,5.23
2018-09-12T16:48:13.030Z,4.87
2018-09-12T16:50:50.283Z,4.73
2018-09-12T16:53:26.790Z,5.13
2018-09-12T16:56:03.229Z,4.90
2018-09-12T16:58:41.077Z,4.73
2018-09-12T17:01:18.767Z,4.23
2018-09-12T17:03:55.804Z,3.70
2018-09-12T17:06:32.738Z,3.93
2018-09-12T17:09:11.594Z,3.40
2018-09-12T17:11:47.961Z,3.40
2018-09-12T17:14:26.004Z,3.33
2018-09-12T17:17:03.481Z,3.37
2018-09-12T17:19:40.273Z,3.83
2018-09-12T17:22:17.110Z,3.77
2018-09-12T17:24:54.607Z,4.23
2018-09-12T17:27:31.874Z,4.03
2018-09-12T17:30:07.742Z,4.50
2018-09-12T17:32:46.358Z,5.37
2018-09-12T17:35:23.258Z,5.47
2018-09-12T17:38:00.274Z,5.60
2018-09-12T17:40:40.240Z,7.13
2018-09-12T17:43:17.203Z,5.93
2018-09-12T17:45:53.781Z,5.47
2018-09-12T17:48:32.129Z,5.77
2018-09-12T17:51:09.817Z,5.33
2018-09-12T17:53:50.516Z,6.37
2018-09-12T17:56:27.360Z,5.77
2018-09-12T17:59:06.770Z,5.47
2018-09-12T18:01:44.736Z,5.50
2018-09-12T18:04:23.294Z,5.70
2018-09-12T18:07:01.414Z,6.27
2018-09-12T18:09:39.410Z,6.90
2018-09-12T18:12:20.228Z,6.40
2018-09-12T18:14:57.461Z,6.30
2018-09-12T18:17:34.897Z,6.77
2018-09-12T18:20:13.901Z,6.87
2018-09-12T18:22:51.361Z,7.07
2018-09-12T18:25:31.161Z,6.57
2018-09-12T18:28:07.694Z,5.83
2018-09-12T18:30:49.316Z,5.27
2018-09-12T18:33:26.812Z,5.87
2018-09-12T18:36:04.718Z,6.07
2018-09-12T18:38:41.011Z,5.50
2018-09-12T18:41:17.721Z,5.47
2018-09-12T18:43:55.637Z,6.70
2018-09-12T18:46:34.609Z,5.80
2018-09-12T18:49:14.078Z,6.70
2018-09-12T18:51:52.132Z,5.67
2018-09-12T18:54:30.329Z,5.80
2018-09-12T18:57:07.042Z,4.73
2018-09-12T18:59:43.536Z,4.80
2018-09-12T19:02:20.044Z,5.17
2018-09-12T19:04:57.599Z,5.10
2018-09-12T19:07:34.683Z,5.03
2018-09-12T19:10:12.587Z,5.27
2018-09-12T19:12:53.400Z,4.87
2018-09-12T19:15:30.248Z,4.97
2018-09-12T19:18:06.814Z,4.90
2018-09-12T19:20:43.694Z,5.27
2018-09-12T19:23:20.945Z,4.97
2018-09-12T19:25:57.821Z,5.43
2018-09-12T19:28:33.536Z,5.73
2018-09-12T19:31:10.479Z,5.53
2018-09-12T19:33:47.714Z,5.37
2018-09-12T19:36:25.164Z,5.83
2018-09-12T19:39:01.283Z,6.50
2018-09-12T19:41:37.996Z,5.60
2018-09-12T19:44:14.133Z,5.20
2018-09-12T19:46:51.889Z,4.73
2018-09-12T19:49:29.015Z,5.17
2018-09-12T19:52:06.665Z,4.67
2018-09-12T19:54:42.459Z,4.10
2018-09-12T19:57:19.877Z,4.57
2018-09-12T19:59:56.579Z,4.70
2018-09-12T20:02:34.365Z,4.57
2018-09-12T20:05:12.776Z,3.70
2018-09-12T20:07:50.091Z,4.20
2018-09-12T20:10:26.834Z,3.63
2018-09-12T20:13:04.357Z,3.60
2018-09-12T20:15:51.006Z,3.90
2018-09-12T20:18:27.938Z,3.97
2018-09-12T20:21:07.527Z,4.20
2018-09-12T20:23:43.998Z,5.10
2018-09-12T20:26:20.919Z,4.57
2018-09-12T20:28:56.962Z,4.90
2018-09-12T20:31:35.375Z,4.70
2018-09-12T20:34:12.923Z,4.70
2018-09-12T20:36:49.899Z,5.33
2018-09-12T20:39:27.094Z,5.23
2018-09-12T20:42:04.259Z,5.00
2018-09-12T20:44:40.988Z,5.47
2018-09-12T20:47:18.849Z,5.17
2018-09-12T20:49:55.849Z,5.73
2018-09-12T20:52:33.315Z,5.40
2018-09-12T20:55:09.189Z,6.07
2018-09-12T20:57:47.020Z,6.27
2018-09-12T21:00:23.332Z,6.10
2018-09-12T21:02:59.992Z,6.63
2018-09-12T21:05:36.325Z,6.20
2018-09-12T21:08:13.835Z,6.03
2018-09-12T21:10:51.220Z,6.40
2018-09-12T21:13:31.127Z,6.10
2018-09-12T21:16:08.564Z,6.57
2018-09-12T21:18:45.237Z,6.47
2018-09-12T21:21:21.812Z,6.37
2018-09-12T21:23:58.172Z,6.40
2018-09-12T21:26:34.800Z,6.37
2018-09-12T21:29:13.060Z,6.23
2018-09-12T21:31:49.156Z,6.47
2018-09-12T21:34:26.670Z,7.43
2018-09-12T21:37:02.591Z,6.63
2018-09-12T21:39:38.524Z,7.30
2018-09-12T21:42:15.775Z,7.37
2018-09-12T21:44:51.963Z,6.73
2018-09-12T21:47:28.346Z,6.73
2018-09-12T21:50:05.380Z,6.77
2018-09-12T21:52:42.905Z,6.13
2018-09-12T21:55:20.191Z,7.10
2018-09-12T21:57:59.392Z,6.77
2018-09-12T22:00:36.256Z,6.70
2018-09-12T22:03:12.991Z,6.77
2018-09-12T22:05:50.428Z,7.43
2018-09-12T22:08:26.701Z,7.10
2018-09-12T22:11:03.484Z,7.10
2018-09-12T22:13:40.753Z,6.37
2018-09-12T22:16:16.864Z,7.20
2018-09-12T22:18:52.815Z,6.40
2018-09-12T22:21:29.144Z,7.57
2018-09-12T22:24:05.652Z,8.07
2018-09-12T22:26:41.611Z,7.80
2018-09-12T22:29:18.005Z,7.07
2018-09-12T22:31:54.405Z,7.80
2018-09-12T22:34:31.484Z,7.73
2018-09-12T22:37:08.465Z,8.03
2018-09-12T22:39:44.768Z,7.70
2018-09-12T22:42:22.019Z,7.30
2018-09-12T22:44:57.730Z,8.27
2018-09-12T22:47:33.935Z,7.60
2018-09-12T22:50:10.907Z,8.00
2018-09-12T22:52:47.279Z,7.43
2018-09-12T22:55:23.329Z,8.23
2018-09-12T22:58:01.043Z,7.43
2018-09-12T23:00:36.824Z,7.97
2018-09-12T23:03:13.702Z,7.60
2018-09-12T23:05:49.938Z,8.33
2018-09-12T23:08:26.698Z,8.40
2018-09-12T23:11:03.064Z,7.93
2018-09-12T23:13:39.673Z,7.50
2018-09-12T23:16:16.759Z,6.80
2018-09-12T23:18:54.666Z,7.97
2018-09-12T23:21:32.727Z,7.33
2018-09-12T23:24:09.708Z,7.43
2018-09-12T23:26:45.817Z,7.93
2018-09-12T23:29:23.228Z,7.60
2018-09-12T23:32:00.950Z,7.50
2018-09-12T23:34:37.675Z,7.03
2018-09-12T23:37:14.804Z,7.60
2018-09-12T23:39:50.590Z,8.27
2018-09-12T23:42:26.569Z,8.10
2018-09-12T23:45:03.538Z,7.73
2018-09-12T23:47:40.261Z,7.80
2018-09-12T23:50:16.628Z,7.70
2018-09-12T23:52:53.051Z,8.00
2018-09-12T23:55:29.045Z,7.30
2018-09-12T23:58:05.788Z,7.30
